createdAt,value
2022-08-17T00:02:26.216Z,99624.78
2022-08-17T00:04:54.551Z,99622.91
2022-08-17T00:07:21.634Z,99624.31
2022-08-17T00:09:49.031Z,99622.16
2022-08-17T00:12:41.499Z,99617.28
2022-08-17T00:15:03.970Z,99619.47
2022-08-17T00:17:30.943Z,99614.00
2022-08-17T00:19:57.809Z,99605.78
2022-08-17T00:22:32.649Z,99611.53
2022-08-17T00:25:05.449Z,99616.19
2022-08-17T00:27:32.596Z,99608.56
2022-08-17T00:29:59.513Z,99618.19
2022-08-17T00:33:14.716Z,99617.91
2022-08-17T00:35:15.366Z,99617.91
2022-08-17T00:37:42.237Z,99612.16
2022-08-17T00:40:10.363Z,99613.28
2022-08-17T00:42:37.360Z,99612.75
2022-08-17T00:45:05.379Z,99615.75
2022-08-17T00:47:32.356Z,99617.91
2022-08-17T00:49:59.408Z,99606.16
2022-08-17T00:52:29.138Z,99606.97
2022-08-17T00:54:56.314Z,99602.28
2022-08-17T00:57:25.085Z,99605.78
2022-08-17T01:00:03.256Z,99607.34
2022-08-17T01:02:41.179Z,99611.16
2022-08-17T01:05:18.486Z,99606.75
2022-08-17T01:07:46.013Z,99610.84
2022-08-17T01:10:58.195Z,99595.81
2022-08-17T01:13:03.475Z,99598.28
2022-08-17T01:15:30.739Z,99595.38
2022-08-17T01:17:57.586Z,99592.69
2022-08-17T01:20:25.214Z,99595.47
2022-08-17T01:22:52.288Z,99583.19
2022-08-17T01:25:19.127Z,99589.22
2022-08-17T01:27:46.202Z,99587.88
2022-08-17T01:30:58.777Z,99591.47
2022-08-17T01:33:00.389Z,99583.81
2022-08-17T01:35:27.387Z,99582.25
2022-08-17T01:37:54.198Z,99586.66
2022-08-17T01:40:34.137Z,99582.34
2022-08-17T01:43:02.246Z,99583.47
2022-08-17T01:45:33.205Z,99583.22
2022-08-17T01:48:00.405Z,99586.00
2022-08-17T01:50:28.685Z,99582.75
2022-08-17T01:53:00.601Z,99586.31
2022-08-17T01:55:30.020Z,99583.88
2022-08-17T01:57:56.936Z,99589.06
2022-08-17T02:00:27.531Z,99583.94
2022-08-17T02:03:14.699Z,99584.50
2022-08-17T02:05:41.501Z,99584.25
2022-08-17T02:08:08.425Z,99588.63
2022-08-17T02:10:47.765Z,99587.84
2022-08-17T02:13:16.007Z,99589.22
2022-08-17T02:15:43.071Z,99590.91
2022-08-17T02:18:10.472Z,99586.81
2022-08-17T02:20:42.355Z,99589.56
2022-08-17T02:23:11.994Z,99592.53
2022-08-17T02:25:39.558Z,99597.19
2022-08-17T02:28:06.443Z,99582.97
2022-08-17T02:30:59.491Z,99599.13
2022-08-17T02:33:20.509Z,99599.41
2022-08-17T02:35:48.572Z,99596.41
2022-08-17T02:38:15.452Z,99592.28
2022-08-17T02:40:42.277Z,99587.06
2022-08-17T02:43:13.914Z,99592.81
2022-08-17T02:45:40.894Z,99601.53
2022-08-17T02:48:10.368Z,99590.06
2022-08-17T02:50:37.379Z,99590.59
2022-08-17T02:53:05.121Z,99591.38
2022-08-17T02:55:34.931Z,99590.84
2022-08-17T02:58:03.840Z,99587.81
2022-08-17T03:00:35.800Z,99587.00
2022-08-17T03:03:05.085Z,99591.66
2022-08-17T03:05:32.853Z,99592.47
2022-08-17T03:08:02.379Z,99590.00
2022-08-17T03:10:29.941Z,99594.09
2022-08-17T03:12:57.089Z,99598.69
2022-08-17T03:15:26.273Z,99598.13
2022-08-17T03:17:53.696Z,99599.19
2022-08-17T03:20:20.902Z,99591.53
2022-08-17T03:22:53.323Z,99593.44
2022-08-17T03:25:30.975Z,99592.59
2022-08-17T03:27:57.900Z,99592.81
2022-08-17T03:30:26.095Z,99591.97
2022-08-17T03:32:54.825Z,99594.94
2022-08-17T03:35:23.300Z,99588.09
2022-08-17T03:37:56.932Z,99586.41
2022-08-17T03:40:55.422Z,99589.13
2022-08-17T03:43:26.465Z,99590.41
2022-08-17T03:46:28.528Z,99587.06
2022-08-17T03:49:17.660Z,99594.34
2022-08-17T03:52:03.294Z,99590.44
2022-08-17T03:54:48.912Z,99596.41
2022-08-17T03:57:16.572Z,99601.56
2022-08-17T03:59:46.327Z,99599.00
2022-08-17T04:02:25.930Z,99600.63
2022-08-17T04:05:00.395Z,99597.75
2022-08-17T04:07:28.921Z,99603.13
2022-08-17T04:09:55.888Z,99600.53
2022-08-17T04:12:23.040Z,99595.78
2022-08-17T04:14:53.426Z,99596.28
2022-08-17T04:17:22.922Z,99595.66
2022-08-17T04:19:55.955Z,99596.41
2022-08-17T04:22:30.508Z,99596.41
2022-08-17T04:25:05.752Z,99597.81
2022-08-17T04:27:32.756Z,99586.53
2022-08-17T04:29:59.801Z,99592.19
2022-08-17T04:33:03.640Z,99594.78
2022-08-17T04:35:17.472Z,99601.75
2022-08-17T04:37:47.461Z,99592.06
2022-08-17T04:40:32.891Z,99594.00
2022-08-17T04:43:07.474Z,99591.78
2022-08-17T04:45:35.087Z,99593.47
2022-08-17T04:48:02.842Z,99590.22
2022-08-17T04:50:29.911Z,99596.13
2022-08-17T04:52:57.229Z,99588.16
2022-08-17T04:55:24.523Z,99593.75
2022-08-17T04:57:51.393Z,99582.63
2022-08-17T05:00:18.351Z,99589.59
2022-08-17T05:02:50.277Z,99589.13
2022-08-17T05:05:21.395Z,99595.03
2022-08-17T05:07:48.559Z,99585.38
2022-08-17T05:10:15.415Z,99584.69
2022-08-17T05:12:42.386Z,99590.97
2022-08-17T05:15:16.116Z,99584.69
2022-08-17T05:17:44.141Z,99582.88
2022-08-17T05:20:11.237Z,99579.63
2022-08-17T05:25:34.540Z,99581.53
2022-08-17T05:28:04.803Z,99575.34
2022-08-17T05:30:33.570Z,99579.00
2022-08-17T05:33:07.942Z,99568.41
2022-08-17T05:35:35.528Z,99564.09
2022-08-17T05:38:02.519Z,99576.13
2022-08-17T05:40:32.636Z,99567.44
2022-08-17T05:43:07.454Z,99567.53
2022-08-17T05:45:54.878Z,99568.22
2022-08-17T05:48:21.585Z,99564.19
2022-08-17T05:57:12.731Z,99557.50
2022-08-17T05:59:45.424Z,99557.00
2022-08-17T06:02:33.733Z,99562.75
2022-08-17T06:05:15.941Z,99556.03
2022-08-17T06:07:46.281Z,99564.84
2022-08-17T06:10:18.968Z,99567.97
2022-08-17T06:12:54.973Z,99562.06
2022-08-17T06:15:31.128Z,99566.81
2022-08-17T06:17:59.432Z,99568.81
2022-08-17T06:20:30.483Z,99567.38
2022-08-17T06:22:59.000Z,99565.81
2022-08-17T06:25:34.126Z,99567.56
2022-08-17T06:28:03.408Z,99566.50
2022-08-17T06:30:36.731Z,99565.41
2022-08-17T06:33:22.686Z,99569.28
2022-08-17T06:36:09.641Z,99570.25
2022-08-17T06:38:48.678Z,99568.97
2022-08-17T06:41:18.066Z,99563.44
2022-08-17T06:43:53.592Z,99570.91
2022-08-17T06:46:34.255Z,99567.47
2022-08-17T06:49:01.375Z,99565.19
2022-08-17T06:51:30.176Z,99564.00
2022-08-17T06:54:05.349Z,99563.63
2022-08-17T06:56:54.728Z,99573.50
2022-08-17T06:59:25.276Z,99568.25
2022-08-17T07:01:52.336Z,99555.22
2022-08-17T07:04:21.624Z,99558.91
2022-08-17T07:06:54.100Z,99556.94
2022-08-17T07:09:24.877Z,99565.91
2022-08-17T07:12:11.380Z,99560.81
2022-08-17T07:14:39.853Z,99557.53
2022-08-17T07:17:17.080Z,99557.16
2022-08-17T07:19:45.649Z,99552.47
2022-08-17T07:22:18.912Z,99552.00
2022-08-17T07:25:03.833Z,99553.78
2022-08-17T07:27:41.565Z,99549.13
2022-08-17T07:30:16.561Z,99549.72
2022-08-17T07:32:56.022Z,99548.50
2022-08-17T07:35:41.321Z,99540.69
2022-08-17T07:38:26.336Z,99543.97
2022-08-17T07:41:08.035Z,99537.66
2022-08-17T07:43:41.357Z,99524.56
2022-08-17T07:46:29.932Z,99529.66
2022-08-17T07:48:58.485Z,99531.66
2022-08-17T07:51:27.005Z,99503.59
2022-08-17T07:54:13.542Z,99513.19
2022-08-17T07:56:44.827Z,99518.88
2022-08-17T07:59:25.408Z,99520.94
2022-08-17T08:01:55.547Z,99523.88
2022-08-17T08:07:18.280Z,99522.25
2022-08-17T08:09:46.931Z,99527.44
2022-08-17T08:12:24.057Z,99518.47
2022-08-17T08:14:59.142Z,99529.56
2022-08-17T08:17:35.794Z,99534.19
2022-08-17T08:20:37.624Z,99523.09
2022-08-17T08:23:14.141Z,99526.50
2022-08-17T08:25:53.385Z,99518.81
2022-08-17T08:28:23.878Z,99516.94
2022-08-17T08:30:53.218Z,99523.91
2022-08-17T08:33:25.369Z,99517.41
2022-08-17T08:35:54.109Z,99525.22
2022-08-17T08:38:35.104Z,99519.59
2022-08-17T08:41:06.490Z,99521.78
2022-08-17T08:43:54.458Z,99518.81
2022-08-17T08:46:27.227Z,99514.78
2022-08-17T08:49:14.588Z,99508.34
2022-08-17T08:51:57.909Z,99502.34
2022-08-17T08:54:34.623Z,99508.75
2022-08-17T08:57:29.139Z,99499.25
2022-08-17T08:59:58.371Z,99506.31
2022-08-17T09:02:29.114Z,99505.41
2022-08-17T09:05:15.513Z,99502.97
2022-08-17T09:07:42.913Z,99507.59
2022-08-17T09:10:25.612Z,99504.25
2022-08-17T09:13:10.245Z,99499.47
2022-08-17T09:15:39.488Z,99504.63
2022-08-17T09:19:00.906Z,99493.66
2022-08-17T09:21:25.243Z,99496.88
2022-08-17T09:24:05.088Z,99500.28
2022-08-17T09:26:35.607Z,99495.91
2022-08-17T09:29:07.156Z,99482.78
2022-08-17T09:31:48.158Z,99497.19
2022-08-17T09:34:18.663Z,99503.00
2022-08-17T09:37:08.871Z,99496.19
2022-08-17T09:39:56.213Z,99489.91
2022-08-17T09:42:35.050Z,99487.59
2022-08-17T09:45:02.143Z,99490.41
2022-08-17T09:47:37.050Z,99493.28
2022-08-17T09:50:06.902Z,99482.44
2022-08-17T09:52:33.817Z,99490.06
2022-08-17T09:55:01.606Z,99482.03
2022-08-17T09:57:38.116Z,99490.88
2022-08-17T10:00:17.407Z,99484.47
2022-08-17T10:02:53.815Z,99485.25
2022-08-17T10:05:55.002Z,99476.75
2022-08-17T10:08:42.710Z,99480.34
2022-08-17T10:11:50.580Z,99482.00
2022-08-17T10:14:37.230Z,99477.09
2022-08-17T10:17:20.571Z,99486.06
2022-08-17T10:20:08.702Z,99481.59
2022-08-17T10:23:11.970Z,99479.19
2022-08-17T10:26:00.264Z,99478.06
2022-08-17T10:28:38.216Z,99482.34
2022-08-17T10:34:05.671Z,99470.06
2022-08-17T10:36:47.489Z,99463.88
2022-08-17T10:39:20.864Z,99462.22
2022-08-17T10:41:50.567Z,99461.88
2022-08-17T10:44:42.524Z,99461.94
2022-08-17T10:47:10.666Z,99457.03
2022-08-17T10:49:48.108Z,99452.84
2022-08-17T10:52:26.599Z,99450.31
2022-08-17T10:54:59.108Z,99449.97
2022-08-17T10:57:36.561Z,99450.69
2022-08-17T11:00:17.248Z,99447.81
2022-08-17T11:02:49.990Z,99453.25
2022-08-17T11:05:38.996Z,99447.03
2022-08-17T11:08:28.421Z,99450.63
2022-08-17T11:10:55.359Z,99444.66
2022-08-17T11:13:26.804Z,99438.84
2022-08-17T11:15:54.983Z,99447.16
2022-08-17T11:18:33.116Z,99446.31
2022-08-17T11:21:29.382Z,99423.13
2022-08-17T11:24:15.541Z,99436.59
2022-08-17T11:26:46.977Z,99435.41
2022-08-17T11:29:18.443Z,99430.41
2022-08-17T11:31:47.657Z,99437.63
2022-08-17T11:34:18.609Z,99439.78
2022-08-17T11:36:48.605Z,99439.19
2022-08-17T11:39:36.069Z,99437.41
2022-08-17T11:42:07.787Z,99428.81
2022-08-17T11:44:40.951Z,99428.75
2022-08-17T11:47:26.358Z,99427.41
2022-08-17T11:50:30.455Z,99423.91
2022-08-17T11:52:57.466Z,99419.81
2022-08-17T11:55:39.552Z,99412.28
2022-08-17T11:58:27.537Z,99411.34
2022-08-17T12:00:57.314Z,99409.88
2022-08-17T12:03:37.085Z,99401.44
2022-08-17T12:06:10.176Z,99405.06
2022-08-17T12:08:41.932Z,99393.72
2022-08-17T12:11:12.519Z,99392.53
2022-08-17T12:13:46.592Z,99406.28
2022-08-17T12:16:19.696Z,99389.44
2022-08-17T12:18:51.088Z,99392.53
2022-08-17T12:21:18.335Z,99395.50
2022-08-17T12:24:06.860Z,99393.91
2022-08-17T12:26:35.657Z,99393.16
2022-08-17T12:29:03.978Z,99385.28
2022-08-17T12:31:51.107Z,99388.66
2022-08-17T12:34:19.229Z,99388.44
2022-08-17T12:36:47.095Z,99386.13
2022-08-17T12:39:21.223Z,99382.66
2022-08-17T12:41:50.311Z,99375.47
2022-08-17T12:44:18.836Z,99379.34
2022-08-17T12:46:51.235Z,99393.13
2022-08-17T12:49:24.359Z,99383.84
2022-08-17T12:51:51.828Z,99372.00
2022-08-17T12:54:37.615Z,99373.31
2022-08-17T12:57:06.119Z,99371.88
2022-08-17T12:59:33.341Z,99377.47
2022-08-17T13:02:00.635Z,99378.72
2022-08-17T13:04:29.581Z,99368.84
2022-08-17T13:06:59.794Z,99374.44
2022-08-17T13:09:35.783Z,99368.91
2022-08-17T13:12:07.086Z,99373.22
2022-08-17T13:14:35.560Z,99364.81
2022-08-17T13:17:06.319Z,99365.34
2022-08-17T13:19:41.384Z,99369.22
2022-08-17T13:22:11.166Z,99369.53
2022-08-17T13:24:38.721Z,99372.25
2022-08-17T13:27:08.790Z,99366.03
2022-08-17T13:29:39.997Z,99364.72
2022-08-17T13:32:13.377Z,99376.03
2022-08-17T13:35:11.760Z,99368.84
2022-08-17T13:37:35.628Z,99367.09
2022-08-17T13:40:11.799Z,99366.63
2022-08-17T13:42:52.327Z,99372.84
2022-08-17T13:45:36.053Z,99375.72
2022-08-17T13:48:07.343Z,99362.34
2022-08-17T13:50:41.092Z,99373.28
2022-08-17T13:53:26.834Z,99361.03
2022-08-17T13:55:54.792Z,99363.94
2022-08-17T13:58:23.393Z,99363.03
2022-08-17T14:00:51.779Z,99363.50
2022-08-17T14:03:19.249Z,99366.47
2022-08-17T14:05:46.776Z,99367.00
2022-08-17T14:08:17.601Z,99366.53
2022-08-17T14:10:45.795Z,99356.97
2022-08-17T14:15:59.137Z,99354.94
2022-08-17T14:18:43.343Z,99355.75
2022-08-17T14:21:17.611Z,99356.84
2022-08-17T14:23:54.258Z,99350.25
2022-08-17T14:26:23.434Z,99350.28
2022-08-17T14:28:56.204Z,99345.72
2022-08-17T14:31:37.226Z,99343.84
2022-08-17T14:34:06.361Z,99349.59
2022-08-17T14:36:33.394Z,99347.19
2022-08-17T14:39:00.241Z,99344.75
2022-08-17T14:41:33.068Z,99350.16
2022-08-17T14:44:06.287Z,99343.59
2022-08-17T14:46:36.086Z,99353.00
2022-08-17T14:49:03.216Z,99352.44
2022-08-17T14:51:30.517Z,99347.19
2022-08-17T14:56:41.616Z,99350.47
2022-08-17T14:59:12.356Z,99343.00
2022-08-17T15:01:39.491Z,99348.06
2022-08-17T15:04:07.296Z,99342.81
2022-08-17T15:06:34.380Z,99347.63
2022-08-17T15:09:02.517Z,99345.97
2022-08-17T15:11:29.696Z,99344.81
2022-08-17T15:13:56.807Z,99348.16
2022-08-17T15:16:24.337Z,99345.03
2022-08-17T15:18:52.783Z,99349.75
2022-08-17T15:21:20.268Z,99343.88
2022-08-17T15:23:47.964Z,99342.78
2022-08-17T15:26:14.917Z,99336.09
2022-08-17T15:28:41.898Z,99342.16
2022-08-17T15:31:08.827Z,99342.47
2022-08-17T15:33:35.876Z,99340.00
2022-08-17T15:36:04.633Z,99334.25
2022-08-17T15:38:34.277Z,99339.00
2022-08-17T15:41:04.342Z,99344.19
2022-08-17T15:43:32.720Z,99343.97
2022-08-17T15:46:00.448Z,99349.22
2022-08-17T15:48:40.841Z,99350.72
2022-08-17T15:51:12.362Z,99332.56
2022-08-17T15:53:39.513Z,99340.31
2022-08-17T15:56:06.637Z,99339.91
2022-08-17T15:58:34.188Z,99343.16
2022-08-17T16:01:16.550Z,99347.94
2022-08-17T16:04:04.172Z,99347.56
2022-08-17T16:06:36.504Z,99348.59
2022-08-17T16:09:03.463Z,99354.66
2022-08-17T16:11:30.341Z,99343.13
2022-08-17T16:13:57.322Z,99348.13
2022-08-17T16:16:24.526Z,99343.41
2022-08-17T16:19:02.847Z,99347.41
2022-08-17T16:21:31.253Z,99355.38
2022-08-17T16:24:13.454Z,99346.03
2022-08-17T16:26:42.121Z,99343.81
2022-08-17T16:29:11.223Z,99352.19
2022-08-17T16:31:59.988Z,99352.00
2022-08-17T16:34:27.166Z,99351.59
2022-08-17T16:36:56.457Z,99356.84
2022-08-17T16:39:24.822Z,99359.16
2022-08-17T16:41:52.164Z,99353.84
2022-08-17T16:44:19.814Z,99351.09
2022-08-17T16:46:48.658Z,99353.69
2022-08-17T16:49:36.134Z,99351.50
2022-08-17T16:52:10.360Z,99356.44
2022-08-17T16:54:43.819Z,99358.06
2022-08-17T16:57:14.629Z,99355.06
2022-08-17T16:59:48.130Z,99354.00
2022-08-17T17:02:15.859Z,99367.94
2022-08-17T17:05:03.281Z,99365.06
2022-08-17T17:07:56.986Z,99366.09
2022-08-17T17:10:25.437Z,99369.00
2022-08-17T17:13:02.162Z,99371.63
2022-08-17T17:15:34.258Z,99367.50
2022-08-17T17:18:06.825Z,99369.22
2022-08-17T17:20:40.737Z,99375.97
2022-08-17T17:23:12.140Z,99372.44
2022-08-17T17:26:05.005Z,99379.78
2022-08-17T17:28:38.469Z,99379.03
2022-08-17T17:31:11.420Z,99375.19
2022-08-17T17:33:40.951Z,99370.59
2022-08-17T17:36:20.319Z,99368.41
2022-08-17T17:38:49.281Z,99362.59
2022-08-17T17:41:25.336Z,99366.69
2022-08-17T17:43:56.743Z,99364.75
2022-08-17T17:46:31.575Z,99358.84
2022-08-17T17:48:58.810Z,99365.66
2022-08-17T17:52:09.418Z,99360.50
2022-08-17T17:54:33.161Z,99362.47
2022-08-17T17:57:00.141Z,99354.69
2022-08-17T17:59:41.813Z,99362.38
2022-08-17T18:02:11.007Z,99349.91
2022-08-17T18:04:41.517Z,99353.34
2022-08-17T18:07:23.694Z,99353.34
2022-08-17T18:10:19.707Z,99352.25
2022-08-17T18:12:56.516Z,99350.97
2022-08-17T18:15:31.646Z,99350.97
2022-08-17T18:18:15.197Z,99346.28
2022-08-17T18:20:53.470Z,99340.50
2022-08-17T18:23:27.732Z,99342.41
2022-08-17T18:25:55.571Z,99338.03
2022-08-17T18:28:25.559Z,99343.22
2022-08-17T18:31:05.116Z,99340.66
2022-08-17T18:33:32.122Z,99342.28
2022-08-17T18:36:02.027Z,99343.75
2022-08-17T18:38:30.895Z,99352.81
2022-08-17T18:40:59.268Z,99347.97
2022-08-17T18:43:43.734Z,99350.06
2022-08-17T18:46:45.305Z,99348.78
2022-08-17T18:49:28.727Z,99344.72
2022-08-17T18:52:16.029Z,99349.75
2022-08-17T18:54:57.974Z,99347.50
2022-08-17T18:57:28.716Z,99343.13
2022-08-17T18:59:57.961Z,99344.25
2022-08-17T19:05:13.918Z,99344.44
2022-08-17T19:07:42.162Z,99350.59
2022-08-17T19:10:15.057Z,99351.25
2022-08-17T19:12:44.338Z,99351.09
2022-08-17T19:15:13.021Z,99354.00
2022-08-17T19:17:42.091Z,99349.94
2022-08-17T19:20:19.803Z,99350.09
2022-08-17T19:22:49.975Z,99342.81
2022-08-17T19:25:21.951Z,99355.47
2022-08-17T19:27:51.453Z,99353.81
2022-08-17T19:30:24.529Z,99351.56
2022-08-17T19:32:51.621Z,99351.25
2022-08-17T19:35:20.453Z,99356.59
2022-08-17T19:37:49.570Z,99362.44
2022-08-17T19:43:19.329Z,99362.88
2022-08-17T19:46:06.229Z,99355.91
2022-08-17T19:48:39.096Z,99348.28
2022-08-17T19:51:06.013Z,99357.19
2022-08-17T19:54:04.881Z,99359.94
2022-08-17T19:56:51.905Z,99349.41
2022-08-17T19:59:25.948Z,99349.72
2022-08-17T20:05:10.734Z,99352.00
2022-08-17T20:07:50.752Z,99356.84
2022-08-17T20:10:29.517Z,99354.56
2022-08-17T20:12:57.517Z,99356.97
2022-08-17T20:15:29.679Z,99356.31
2022-08-17T20:18:00.473Z,99358.41
2022-08-17T20:20:33.477Z,99364.56
2022-08-17T20:23:29.244Z,99366.16
2022-08-17T20:26:17.164Z,99365.94
2022-08-17T20:29:04.577Z,99368.72
2022-08-17T20:31:44.816Z,99367.59
2022-08-17T20:34:30.804Z,99365.66
2022-08-17T20:37:22.852Z,99372.06
2022-08-17T20:39:50.042Z,99369.47
2022-08-17T20:42:17.079Z,99374.97
2022-08-17T20:44:46.509Z,99371.41
2022-08-17T20:47:18.671Z,99375.78
2022-08-17T20:50:00.227Z,99380.81
2022-08-17T20:52:36.110Z,99380.59
2022-08-17T20:55:04.543Z,99389.16
2022-08-17T21:00:29.578Z,99392.38
2022-08-17T21:03:50.359Z,99395.56
2022-08-17T21:06:24.094Z,99390.34
2022-08-17T21:08:53.892Z,99393.22
2022-08-17T21:11:56.833Z,99399.66
2022-08-17T21:14:21.081Z,99397.19
2022-08-17T21:16:48.434Z,99397.63
2022-08-17T21:19:17.960Z,99395.31
2022-08-17T21:22:03.287Z,99396.75
2022-08-17T21:24:45.344Z,99392.69
2022-08-17T21:27:12.466Z,99391.19
2022-08-17T21:30:06.423Z,99396.16
2022-08-17T21:32:34.684Z,99385.94
2022-08-17T21:35:07.178Z,99396.28
2022-08-17T21:37:43.420Z,99392.53
2022-08-17T21:40:10.337Z,99392.66
2022-08-17T21:42:38.666Z,99392.25
2022-08-17T21:45:10.433Z,99391.28
2022-08-17T21:47:45.634Z,99400.75
2022-08-17T21:50:21.629Z,99392.81
2022-08-17T21:52:49.766Z,99397.13
2022-08-17T21:55:21.672Z,99397.81
2022-08-17T21:57:52.986Z,99391.47
2022-08-17T22:00:36.836Z,99391.88
2022-08-17T22:03:04.624Z,99396.84
2022-08-17T22:05:39.493Z,99404.38
2022-08-17T22:08:08.929Z,99411.00
2022-08-17T22:10:44.728Z,99406.69
2022-08-17T22:13:17.301Z,99403.75
2022-08-17T22:15:49.143Z,99399.38
2022-08-17T22:18:19.762Z,99402.44
2022-08-17T22:20:50.863Z,99405.78
2022-08-17T22:23:40.530Z,99408.31
2022-08-17T22:26:12.508Z,99405.69
2022-08-17T22:28:41.675Z,99406.09
2022-08-17T22:31:09.957Z,99419.09
2022-08-17T22:33:41.318Z,99404.97
2022-08-17T22:36:21.977Z,99407.41
2022-08-17T22:38:49.361Z,99406.16
2022-08-17T22:41:19.413Z,99411.75
2022-08-17T22:43:46.518Z,99411.31
2022-08-17T22:46:15.050Z,99408.16
2022-08-17T22:48:47.116Z,99414.28
2022-08-17T22:51:15.030Z,99414.38
2022-08-17T22:54:13.659Z,99414.47
2022-08-17T22:57:05.545Z,99412.38
2022-08-17T22:59:34.328Z,99417.66
2022-08-17T23:02:11.709Z,99407.22
2022-08-17T23:04:39.642Z,99420.69
2022-08-17T23:07:09.261Z,99416.63
2022-08-17T23:09:36.431Z,99413.69
2022-08-17T23:12:06.169Z,99414.28
2022-08-17T23:14:36.340Z,99412.13
2022-08-17T23:17:03.503Z,99406.44
2022-08-17T23:19:33.068Z,99416.22
2022-08-17T23:21:59.874Z,99417.03
2022-08-17T23:24:28.416Z,99413.97
2022-08-17T23:26:57.241Z,99410.50
2022-08-17T23:29:24.407Z,99409.75
2022-08-17T23:31:52.298Z,99408.19
2022-08-17T23:34:19.369Z,99411.84
2022-08-17T23:36:53.436Z,99409.75
2022-08-17T23:39:24.481Z,99410.44
2022-08-17T23:41:54.461Z,99410.81
2022-08-17T23:44:23.583Z,99416.56
2022-08-17T23:46:51.416Z,99422.06
2022-08-17T23:49:19.268Z,99423.16
2022-08-17T23:51:46.338Z,99424.25
2022-08-17T23:54:16.501Z,99427.53
2022-08-17T23:56:49.623Z,99431.59
2022-08-17T23:59:17.550Z,99440.94
